Miller, Missouri
Current Conditions -  °F | °C
As of 11:15 AM on Friday 31 Oct 2014 (Local Time) from KHFJ Reporting Station
Scattered Clouds Scattered Clouds  
Wind Chill: 32°   Ceiling: Unl
Heat Index: 41°   Visibility: 10mi
Dew Point: 28°   Wind: 20mph
Humidity: 61%   Direction: 10°N
Pressure: 30.38"   Gusts: 28mph
Location:  37.21°N, 93.84°W
Report Text: KHFJ 311615Z AUTO 01017G24KT 10SM SCT022 05/M02 A3038 RMK AO2
Loading
Personal Weather Stations






























Interactive Weather Map
Tropical Storm Tracking
New forecast layout! Learn more

10-Day Weather Forecast

Advertisements
Track Severe Weather on mobile